createdAt,value
2018-02-05T00:01:42.095Z,84.70
2018-02-05T00:04:09.714Z,85.57
2018-02-05T00:06:37.284Z,86.66
2018-02-05T00:09:04.933Z,86.65
2018-02-05T00:11:32.526Z,85.63
2018-02-05T00:14:00.092Z,83.35
2018-02-05T00:16:27.686Z,84.12
2018-02-05T00:18:55.259Z,83.52
2018-02-05T00:21:22.799Z,83.59
2018-02-05T00:23:50.412Z,84.52
2018-02-05T00:26:17.980Z,84.09
2018-02-05T00:28:45.644Z,84.53
2018-02-05T00:31:13.271Z,84.24
2018-02-05T00:33:40.835Z,83.77
2018-02-05T00:36:08.633Z,83.12
2018-02-05T00:38:36.235Z,81.81
2018-02-05T00:41:03.958Z,81.22
2018-02-05T00:43:31.550Z,81.69
2018-02-05T00:45:59.165Z,80.49
2018-02-05T00:48:26.719Z,81.53
2018-02-05T00:50:54.280Z,82.99
2018-02-05T00:53:21.891Z,84.05
2018-02-05T00:55:49.438Z,84.71
2018-02-05T00:58:17.018Z,84.29
2018-02-05T01:00:44.651Z,84.50
2018-02-05T01:03:12.232Z,84.12
2018-02-05T01:05:39.817Z,85.68
2018-02-05T01:08:07.424Z,86.53
2018-02-05T01:10:34.993Z,86.91
2018-02-05T01:13:02.548Z,86.90
2018-02-05T01:15:30.133Z,86.71
2018-02-05T01:17:57.845Z,86.91
2018-02-05T01:20:25.427Z,87.30
2018-02-05T01:22:53.034Z,87.86
2018-02-05T01:25:20.587Z,88.33
2018-02-05T01:27:48.142Z,88.65
2018-02-05T01:30:15.739Z,88.81
2018-02-05T01:32:43.316Z,88.83
2018-02-05T01:35:10.900Z,88.34
2018-02-05T01:37:38.500Z,87.87
2018-02-05T01:40:06.055Z,87.39
2018-02-05T01:42:33.629Z,87.40
2018-02-05T01:45:01.234Z,88.06
2018-02-05T01:47:28.793Z,87.89
2018-02-05T01:49:56.365Z,87.93
2018-02-05T01:52:23.960Z,87.95
2018-02-05T01:54:51.530Z,87.90
2018-02-05T01:57:20.917Z,88.17
2018-02-05T01:59:50.585Z,88.17
2018-02-05T02:02:19.717Z,88.09
2018-02-05T02:04:48.985Z,88.09
2018-02-05T02:07:18.386Z,88.04
2018-02-05T02:09:47.478Z,88.55
2018-02-05T02:12:17.252Z,88.24
2018-02-05T02:14:46.533Z,88.02
2018-02-05T02:17:15.695Z,87.93
2018-02-05T02:19:45.026Z,87.70
2018-02-05T02:22:14.525Z,87.71
2018-02-05T02:24:42.174Z,87.83
2018-02-05T02:27:09.899Z,87.69
2018-02-05T02:29:37.494Z,87.67
2018-02-05T02:32:05.066Z,87.00
2018-02-05T02:34:32.636Z,86.80
2018-02-05T02:37:00.243Z,87.25
2018-02-05T02:39:28.019Z,87.18
2018-02-05T02:41:55.598Z,87.47
2018-02-05T02:44:23.200Z,87.69
2018-02-05T02:46:50.774Z,87.58
2018-02-05T02:49:18.344Z,87.79
2018-02-05T02:51:45.941Z,87.65
2018-02-05T02:54:13.493Z,87.63
2018-02-05T02:56:41.065Z,87.78
2018-02-05T02:59:08.685Z,87.64
2018-02-05T03:01:36.257Z,87.68
2018-02-05T03:04:04.025Z,87.77
2018-02-05T03:06:31.637Z,88.24
2018-02-05T03:08:59.251Z,88.00
2018-02-05T03:11:26.832Z,87.70
2018-02-05T03:13:54.514Z,87.83
2018-02-05T03:16:22.089Z,88.18
2018-02-05T03:18:49.661Z,88.23
2018-02-05T03:21:17.368Z,87.97
2018-02-05T03:23:44.942Z,88.00
2018-02-05T03:26:12.512Z,88.18
2018-02-05T03:28:40.111Z,88.31
2018-02-05T03:31:07.679Z,88.56
2018-02-05T03:33:35.461Z,88.82
2018-02-05T03:36:03.125Z,88.85
2018-02-05T03:38:30.833Z,88.74
2018-02-05T03:40:58.649Z,88.62
2018-02-05T03:43:26.328Z,88.80
2018-02-05T03:45:53.895Z,88.47
2018-02-05T03:48:21.471Z,88.26
2018-02-05T03:50:49.110Z,88.01
2018-02-05T03:53:16.678Z,87.87
2018-02-05T03:55:44.267Z,87.72
2018-02-05T03:58:11.892Z,87.71
2018-02-05T04:00:39.446Z,86.84
2018-02-05T04:03:07.016Z,86.51
2018-02-05T04:05:34.636Z,86.27
2018-02-05T04:08:02.213Z,86.43
2018-02-05T04:10:29.800Z,86.58
2018-02-05T04:12:57.689Z,86.77
2018-02-05T04:15:25.304Z,87.12
2018-02-05T04:17:52.975Z,87.69
2018-02-05T04:20:20.589Z,87.99
2018-02-05T04:22:48.171Z,87.95
2018-02-05T04:25:15.734Z,88.04
2018-02-05T04:27:43.338Z,88.05
2018-02-05T04:30:10.910Z,87.86
2018-02-05T04:32:38.480Z,87.41
2018-02-05T04:35:06.111Z,87.39
2018-02-05T04:37:33.741Z,86.38
2018-02-05T04:40:01.323Z,85.55
2018-02-05T04:42:28.939Z,85.24
2018-02-05T04:44:56.501Z,84.98
2018-02-05T04:47:24.158Z,84.66
2018-02-05T04:49:51.800Z,83.73
2018-02-05T04:52:19.379Z,84.03
2018-02-05T04:54:47.099Z,84.16
2018-02-05T04:57:14.720Z,84.07
2018-02-05T04:59:42.291Z,84.56
2018-02-05T05:02:09.874Z,84.94
2018-02-05T05:04:37.488Z,85.14
2018-02-05T05:07:05.070Z,85.14
2018-02-05T05:09:32.650Z,85.05
2018-02-05T05:12:00.274Z,84.65
2018-02-05T05:14:27.866Z,84.90
2018-02-05T05:16:55.458Z,84.98
2018-02-05T05:19:23.077Z,84.59
2018-02-05T05:21:50.664Z,84.84
2018-02-05T05:24:18.248Z,85.23
2018-02-05T05:26:45.867Z,85.46
2018-02-05T05:29:13.435Z,85.56
2018-02-05T05:31:40.999Z,85.96
2018-02-05T05:34:08.597Z,85.87
2018-02-05T05:36:36.169Z,85.97
2018-02-05T05:39:03.789Z,86.04
2018-02-05T05:41:31.398Z,86.44
2018-02-05T05:43:59.014Z,86.52
2018-02-05T05:46:26.591Z,86.58
2018-02-05T05:48:54.349Z,86.38
2018-02-05T05:51:21.933Z,86.70
2018-02-05T05:53:49.499Z,86.90
2018-02-05T05:56:17.120Z,86.69
2018-02-05T05:58:44.698Z,86.55
2018-02-05T06:01:12.270Z,86.78
2018-02-05T06:03:39.882Z,86.50
2018-02-05T06:06:07.461Z,86.35
2018-02-05T06:08:35.014Z,86.48
2018-02-05T06:11:02.616Z,86.31
2018-02-05T06:13:30.205Z,86.26
2018-02-05T06:15:57.879Z,82.57
2018-02-05T06:18:25.498Z,82.18
2018-02-05T06:20:53.063Z,80.20
2018-02-05T06:23:20.690Z,75.43
2018-02-05T06:25:48.350Z,70.29
2018-02-05T06:28:16.011Z,65.83
2018-02-05T06:30:43.676Z,61.68
2018-02-05T06:33:11.293Z,58.60
2018-02-05T06:35:38.863Z,56.16
2018-02-05T06:38:06.442Z,54.81
2018-02-05T06:40:34.047Z,53.14
2018-02-05T06:43:01.612Z,51.21
2018-02-05T06:45:29.208Z,51.31
2018-02-05T06:47:56.815Z,50.04
2018-02-05T06:50:36.229Z,50.67
2018-02-05T06:53:15.418Z,48.43
2018-02-05T06:55:47.811Z,48.32
2018-02-05T06:58:15.723Z,49.40
2018-02-05T07:00:43.476Z,47.77
2018-02-05T07:03:11.056Z,48.46
2018-02-05T07:05:38.734Z,47.32
2018-02-05T07:08:06.339Z,49.71
2018-02-05T07:10:33.913Z,50.38
2018-02-05T07:13:01.532Z,49.60
2018-02-05T07:15:29.128Z,49.81
2018-02-05T07:17:56.712Z,49.58
2018-02-05T07:20:24.361Z,48.30
2018-02-05T07:22:52.099Z,46.08
2018-02-05T07:25:19.729Z,43.50
2018-02-05T07:27:47.492Z,43.89
2018-02-05T07:30:15.250Z,44.29
2018-02-05T07:32:42.830Z,41.25
2018-02-05T07:35:10.544Z,41.36
2018-02-05T07:37:38.120Z,40.85
2018-02-05T07:40:05.757Z,41.92
2018-02-05T07:42:33.374Z,40.47
2018-02-05T07:45:00.973Z,38.03
2018-02-05T07:47:28.597Z,38.12
2018-02-05T07:49:56.256Z,39.85
2018-02-05T07:52:23.857Z,40.46
2018-02-05T07:54:51.444Z,39.28
2018-02-05T07:57:19.052Z,41.07
2018-02-05T07:59:46.624Z,39.54
2018-02-05T08:02:14.251Z,41.96
2018-02-05T08:04:41.947Z,42.78
2018-02-05T08:07:09.524Z,41.29
2018-02-05T08:09:37.101Z,41.62
2018-02-05T08:12:04.711Z,40.48
2018-02-05T08:14:32.292Z,42.37
2018-02-05T08:16:59.907Z,42.89
2018-02-05T08:19:27.569Z,42.35
2018-02-05T08:21:55.135Z,42.13
2018-02-05T08:24:22.730Z,42.48
2018-02-05T08:26:50.325Z,39.86
2018-02-05T08:29:17.902Z,42.15
2018-02-05T08:31:45.486Z,40.47
2018-02-05T08:34:13.085Z,41.40
2018-02-05T08:36:40.670Z,44.16
2018-02-05T08:39:08.240Z,39.02
2018-02-05T08:41:35.862Z,40.05
2018-02-05T08:44:03.456Z,41.60
2018-02-05T08:46:31.072Z,41.82
2018-02-05T08:48:58.682Z,41.09
2018-02-05T08:51:26.267Z,39.52
2018-02-05T08:53:53.904Z,37.56
2018-02-05T08:56:21.522Z,39.73
2018-02-05T08:58:49.097Z,38.31
2018-02-05T09:01:16.677Z,39.89
2018-02-05T09:03:44.296Z,39.07
2018-02-05T09:06:11.881Z,38.85
2018-02-05T09:08:39.443Z,40.72
2018-02-05T09:11:07.048Z,38.43
2018-02-05T09:13:34.630Z,37.21
2018-02-05T09:16:02.311Z,38.81
2018-02-05T09:18:29.923Z,38.36
2018-02-05T09:20:57.517Z,38.40
2018-02-05T09:23:25.104Z,40.07
2018-02-05T09:25:52.708Z,41.48
2018-02-05T09:28:20.282Z,38.59
2018-02-05T09:30:47.927Z,37.86
2018-02-05T09:33:15.536Z,36.53
2018-02-05T09:35:43.109Z,34.03
2018-02-05T09:38:10.682Z,36.41
2018-02-05T09:40:38.290Z,33.87
2018-02-05T09:43:05.877Z,33.89
2018-02-05T09:48:07.465Z,34.08
2018-02-05T09:50:35.074Z,35.27
2018-02-05T09:53:02.730Z,33.29
2018-02-05T09:55:30.344Z,31.83
2018-02-05T09:57:57.924Z,31.52
2018-02-05T10:00:25.508Z,32.22
2018-02-05T10:02:53.113Z,31.27
2018-02-05T10:05:20.685Z,31.81
2018-02-05T10:07:48.277Z,34.28
2018-02-05T10:10:15.908Z,33.79
2018-02-05T10:12:43.518Z,32.70
2018-02-05T10:15:11.098Z,34.03
2018-02-05T10:17:38.712Z,34.07
2018-02-05T10:20:06.272Z,34.17
2018-02-05T10:22:33.832Z,33.39
2018-02-05T10:25:01.436Z,31.65
2018-02-05T10:27:28.993Z,32.01
2018-02-05T10:29:56.573Z,32.11
2018-02-05T10:32:24.222Z,30.84
2018-02-05T10:34:51.883Z,30.48
2018-02-05T10:37:20.750Z,31.96
2018-02-05T10:39:49.091Z,30.01
2018-02-05T10:42:18.129Z,30.72
2018-02-05T10:44:47.420Z,29.98
2018-02-05T10:47:16.897Z,31.97
2018-02-05T10:49:47.204Z,28.15
2018-02-05T10:52:16.429Z,30.04
2018-02-05T10:54:44.902Z,30.67
2018-02-05T10:57:13.082Z,31.17
2018-02-05T10:59:41.357Z,31.18
2018-02-05T11:02:09.960Z,30.62
2018-02-05T11:04:38.334Z,31.94
2018-02-05T11:07:07.010Z,31.50
2018-02-05T11:09:36.404Z,30.69
2018-02-05T11:12:05.043Z,30.67
2018-02-05T11:14:34.143Z,30.44
2018-02-05T11:17:03.272Z,31.61
2018-02-05T11:19:32.314Z,33.50
2018-02-05T11:22:01.486Z,30.37
2018-02-05T11:24:31.078Z,30.73
2018-02-05T11:27:00.111Z,30.06
2018-02-05T11:29:29.079Z,31.61
2018-02-05T11:31:56.827Z,33.52
2018-02-05T11:34:24.429Z,31.10
2018-02-05T11:36:52.001Z,31.52
2018-02-05T11:39:19.608Z,30.61
2018-02-05T11:41:47.180Z,28.69
2018-02-05T11:44:14.750Z,29.22
2018-02-05T11:46:42.511Z,30.23
2018-02-05T11:49:10.093Z,30.49
2018-02-05T11:51:37.695Z,31.74
2018-02-05T11:54:05.300Z,31.12
2018-02-05T11:56:33.434Z,30.78
2018-02-05T11:59:01.019Z,31.89
2018-02-05T12:01:28.664Z,30.92
2018-02-05T12:03:56.238Z,28.92
2018-02-05T12:06:23.817Z,28.97
2018-02-05T12:08:51.437Z,28.57
2018-02-05T12:11:19.128Z,28.50
2018-02-05T12:13:46.690Z,29.42
2018-02-05T12:16:14.304Z,30.31
2018-02-05T12:18:41.946Z,32.91
2018-02-05T12:21:09.633Z,31.81
2018-02-05T12:23:37.239Z,32.78
2018-02-05T12:26:04.828Z,31.05
2018-02-05T12:28:32.395Z,30.98
2018-02-05T12:31:00.010Z,29.88
2018-02-05T12:33:27.591Z,31.40
2018-02-05T12:35:55.154Z,32.85
2018-02-05T12:38:22.751Z,32.93
2018-02-05T12:40:51.184Z,31.86
2018-02-05T12:43:18.754Z,31.15
2018-02-05T12:45:46.489Z,32.21
2018-02-05T12:48:14.111Z,31.93
2018-02-05T12:50:41.689Z,34.13
2018-02-05T12:53:09.332Z,33.76
2018-02-05T12:55:36.944Z,34.27
2018-02-05T12:58:04.561Z,32.99
2018-02-05T13:03:38.411Z,28.52
2018-02-05T13:09:08.274Z,27.43
2018-02-05T13:11:35.880Z,26.94
2018-02-05T13:14:03.474Z,27.13
2018-02-05T13:16:31.047Z,28.29
2018-02-05T13:18:58.639Z,30.77
2018-02-05T13:21:26.196Z,31.57
2018-02-05T13:23:53.776Z,31.44
2018-02-05T13:26:21.403Z,34.63
2018-02-05T13:28:48.977Z,33.28
2018-02-05T13:31:16.567Z,32.00
2018-02-05T13:33:44.213Z,31.61
2018-02-05T13:36:11.788Z,32.95
2018-02-05T13:38:39.363Z,31.36
2018-02-05T13:41:06.977Z,32.19
2018-02-05T13:43:34.561Z,31.30
2018-02-05T13:46:02.126Z,31.96
2018-02-05T13:48:29.743Z,32.18
2018-02-05T13:50:57.508Z,32.37
2018-02-05T13:53:25.177Z,33.21
2018-02-05T13:55:52.776Z,32.29
2018-02-05T13:58:20.351Z,32.76
2018-02-05T14:00:47.946Z,31.67
2018-02-05T14:03:15.550Z,32.21
2018-02-05T14:05:43.132Z,32.66
2018-02-05T14:08:10.940Z,31.54
2018-02-05T14:10:38.597Z,34.25
2018-02-05T14:13:06.342Z,36.06
2018-02-05T14:15:34.177Z,38.47
2018-02-05T14:18:01.836Z,39.76
2018-02-05T14:20:29.461Z,40.98
2018-02-05T14:22:57.021Z,43.43
2018-02-05T14:25:24.694Z,44.71
2018-02-05T14:27:52.358Z,45.12
2018-02-05T14:30:19.978Z,46.39
2018-02-05T14:32:47.614Z,47.60
2018-02-05T14:35:15.226Z,47.28
2018-02-05T14:37:42.795Z,47.74
2018-02-05T14:40:10.411Z,48.59
2018-02-05T14:42:37.959Z,48.45
2018-02-05T14:45:05.517Z,49.63
2018-02-05T14:47:33.124Z,51.11
2018-02-05T14:50:00.693Z,50.60
2018-02-05T14:52:28.256Z,51.19
2018-02-05T14:54:55.860Z,51.80
2018-02-05T14:57:23.452Z,53.16
2018-02-05T14:59:51.007Z,53.14
2018-02-05T15:02:18.665Z,54.28
2018-02-05T15:04:46.245Z,53.80
2018-02-05T15:07:13.809Z,53.93
2018-02-05T15:09:41.474Z,55.41
2018-02-05T15:12:09.054Z,56.00
2018-02-05T15:14:36.658Z,56.62
2018-02-05T15:17:04.257Z,59.19
2018-02-05T15:19:31.849Z,59.45
2018-02-05T15:21:59.493Z,60.48
2018-02-05T15:24:27.136Z,61.05
2018-02-05T15:26:54.700Z,60.23
2018-02-05T15:29:22.264Z,60.89
2018-02-05T15:31:49.883Z,62.08
2018-02-05T15:34:17.448Z,62.88
2018-02-05T15:36:45.142Z,63.14
2018-02-05T15:39:12.761Z,63.31
2018-02-05T15:41:40.321Z,64.22
2018-02-05T15:44:07.964Z,64.44
2018-02-05T15:46:35.586Z,65.22
2018-02-05T15:49:03.159Z,66.13
2018-02-05T15:51:30.761Z,66.44
2018-02-05T15:53:58.370Z,66.25
2018-02-05T15:56:26.078Z,66.21
2018-02-05T15:58:53.675Z,64.28
2018-02-05T16:01:21.300Z,65.67
2018-02-05T16:03:48.919Z,70.40
2018-02-05T16:06:16.487Z,70.94
2018-02-05T16:08:44.108Z,72.34
2018-02-05T16:11:11.685Z,74.04
2018-02-05T16:13:39.328Z,73.75
2018-02-05T16:16:06.976Z,72.02
2018-02-05T16:18:35.330Z,73.11
2018-02-05T16:21:02.904Z,71.93
2018-02-05T16:23:30.533Z,71.91
2018-02-05T16:25:58.170Z,72.73
2018-02-05T16:28:25.729Z,74.32
2018-02-05T16:30:53.346Z,77.09
2018-02-05T16:33:20.914Z,77.95
2018-02-05T16:35:48.505Z,77.03
2018-02-05T16:38:16.142Z,75.34
2018-02-05T16:40:43.804Z,78.20
2018-02-05T16:43:13.975Z,79.75
2018-02-05T16:45:41.946Z,78.21
2018-02-05T16:48:11.123Z,77.99
2018-02-05T16:50:38.921Z,78.03
2018-02-05T16:53:06.537Z,78.10
2018-02-05T16:55:34.129Z,78.92
2018-02-05T16:58:01.761Z,79.61
2018-02-05T17:00:29.408Z,80.76
2018-02-05T17:02:56.995Z,79.71
2018-02-05T17:05:24.581Z,81.17
2018-02-05T17:07:52.181Z,81.02
2018-02-05T17:10:20.646Z,81.80
2018-02-05T17:12:48.211Z,82.52
2018-02-05T17:15:15.835Z,81.98
2018-02-05T17:17:43.407Z,82.28
2018-02-05T17:20:11.002Z,81.81
2018-02-05T17:22:39.498Z,81.97
2018-02-05T17:25:07.058Z,83.47
2018-02-05T17:27:34.628Z,83.62
2018-02-05T17:30:02.227Z,83.46
2018-02-05T17:32:29.788Z,83.34
2018-02-05T17:34:57.386Z,84.09
2018-02-05T17:37:25.123Z,85.13
2018-02-05T17:39:52.697Z,86.13
2018-02-05T17:42:20.267Z,86.36
2018-02-05T17:44:47.869Z,85.60
2018-02-05T17:47:15.463Z,86.47
2018-02-05T17:49:43.225Z,86.68
2018-02-05T17:52:10.824Z,89.27
2018-02-05T17:54:38.392Z,87.81
2018-02-05T17:57:05.966Z,87.62
2018-02-05T17:59:33.547Z,87.57
2018-02-05T18:02:01.114Z,87.21
2018-02-05T18:04:28.877Z,86.95
2018-02-05T18:06:56.484Z,87.08
2018-02-05T18:09:24.064Z,87.49
2018-02-05T18:11:51.726Z,87.56
2018-02-05T18:14:19.317Z,87.99
2018-02-05T18:16:46.886Z,87.98
2018-02-05T18:19:14.447Z,87.93
2018-02-05T18:21:42.054Z,87.77
2018-02-05T18:24:09.762Z,88.37
2018-02-05T18:26:37.367Z,89.31
2018-02-05T18:29:05.043Z,89.48
2018-02-05T18:31:32.618Z,89.68
2018-02-05T18:34:00.187Z,90.01
2018-02-05T18:36:27.829Z,90.27
2018-02-05T18:38:55.532Z,90.69
2018-02-05T18:41:23.110Z,90.43
2018-02-05T18:43:50.748Z,89.05
2018-02-05T18:46:18.353Z,89.24
2018-02-05T18:48:45.930Z,89.68
2018-02-05T18:51:13.537Z,89.93
2018-02-05T18:53:41.124Z,89.95
2018-02-05T18:56:08.691Z,89.90
2018-02-05T18:58:36.439Z,90.31
2018-02-05T19:01:04.101Z,90.58
2018-02-05T19:03:31.653Z,90.86
2018-02-05T19:05:59.250Z,90.83
2018-02-05T19:08:26.840Z,90.54
2018-02-05T19:10:54.390Z,90.45
2018-02-05T19:13:22.013Z,90.52
2018-02-05T19:15:49.584Z,90.60
2018-02-05T19:18:17.141Z,90.66
2018-02-05T19:20:44.765Z,91.15
2018-02-05T19:23:12.370Z,91.59
2018-02-05T19:25:40.085Z,91.60
2018-02-05T19:28:07.724Z,91.79
2018-02-05T19:30:35.291Z,91.72
2018-02-05T19:33:02.873Z,92.01
2018-02-05T19:35:30.471Z,91.86
2018-02-05T19:37:59.479Z,92.20
2018-02-05T19:40:27.085Z,92.68
2018-02-05T19:42:54.740Z,92.96
2018-02-05T19:45:22.486Z,92.86
2018-02-05T19:47:50.124Z,92.90
2018-02-05T19:50:17.699Z,92.89
2018-02-05T19:52:45.298Z,92.73
2018-02-05T19:55:12.919Z,92.88
2018-02-05T19:57:40.485Z,92.97
2018-02-05T20:00:08.060Z,93.21
2018-02-05T20:02:35.795Z,93.35
2018-02-05T20:05:03.360Z,93.27
2018-02-05T20:07:31.041Z,93.27
2018-02-05T20:09:58.632Z,93.39
2018-02-05T20:12:26.192Z,93.52
2018-02-05T20:14:53.745Z,93.59
2018-02-05T20:17:21.495Z,93.75
2018-02-05T20:19:49.074Z,94.16
2018-02-05T20:22:16.636Z,94.04
2018-02-05T20:24:44.222Z,93.85
2018-02-05T20:27:11.785Z,93.90
2018-02-05T20:29:39.359Z,94.11
2018-02-05T20:32:06.949Z,94.22
2018-02-05T20:34:34.513Z,94.53
2018-02-05T20:37:02.086Z,94.93
2018-02-05T20:39:29.688Z,95.83
2018-02-05T20:41:57.314Z,95.52
2018-02-05T20:44:24.976Z,95.65
2018-02-05T20:46:52.596Z,95.48
2018-02-05T20:49:20.155Z,95.37
2018-02-05T20:51:47.754Z,95.22
2018-02-05T20:54:15.339Z,95.55
2018-02-05T20:56:42.903Z,95.41
2018-02-05T20:59:10.461Z,95.35
2018-02-05T21:01:38.144Z,95.49
2018-02-05T21:04:05.734Z,95.60
2018-02-05T21:06:33.311Z,95.72
2018-02-05T21:09:00.893Z,95.74
2018-02-05T21:11:28.445Z,95.49
2018-02-05T21:13:55.993Z,95.36
2018-02-05T21:16:23.589Z,95.16
2018-02-05T21:18:51.147Z,95.34
2018-02-05T21:21:18.702Z,95.63
2018-02-05T21:23:46.301Z,95.78
2018-02-05T21:26:13.851Z,95.46
2018-02-05T21:28:41.418Z,95.42
2018-02-05T21:31:08.990Z,95.34
2018-02-05T21:33:36.543Z,95.74
2018-02-05T21:36:04.132Z,95.17
2018-02-05T21:38:31.748Z,95.20
2018-02-05T21:40:59.351Z,95.04
2018-02-05T21:43:26.928Z,94.14
2018-02-05T21:45:54.532Z,94.43
2018-02-05T21:48:22.134Z,93.92
2018-02-05T21:50:49.711Z,93.70
2018-02-05T21:53:17.299Z,93.27
2018-02-05T21:55:44.892Z,93.06
2018-02-05T21:58:12.447Z,92.89
2018-02-05T22:00:40.053Z,92.55
2018-02-05T22:03:07.657Z,92.16
2018-02-05T22:05:35.242Z,92.36
2018-02-05T22:08:02.840Z,92.10
2018-02-05T22:10:30.400Z,91.53
2018-02-05T22:12:58.056Z,91.43
2018-02-05T22:15:25.646Z,91.13
2018-02-05T22:17:53.213Z,90.47
2018-02-05T22:20:20.785Z,89.62
2018-02-05T22:22:48.404Z,89.07
2018-02-05T22:25:15.970Z,89.37
2018-02-05T22:27:43.544Z,89.61
2018-02-05T22:30:11.153Z,89.24
2018-02-05T22:32:38.718Z,89.47
2018-02-05T22:35:06.273Z,89.15
2018-02-05T22:37:33.905Z,89.31
2018-02-05T22:40:01.459Z,89.81
2018-02-05T22:42:29.014Z,89.43
2018-02-05T22:44:56.633Z,89.72
2018-02-05T22:47:24.184Z,89.90
2018-02-05T22:49:51.736Z,89.99
2018-02-05T22:52:19.327Z,90.16
2018-02-05T22:54:46.889Z,89.60
2018-02-05T22:57:14.449Z,89.28
2018-02-05T22:59:42.056Z,89.00
2018-02-05T23:02:09.621Z,88.63
2018-02-05T23:04:37.183Z,88.56
2018-02-05T23:07:04.780Z,88.64
2018-02-05T23:09:32.347Z,88.25
2018-02-05T23:11:59.903Z,87.81
2018-02-05T23:14:27.514Z,87.65
2018-02-05T23:16:55.696Z,87.20
2018-02-05T23:19:25.090Z,87.11
2018-02-05T23:21:52.819Z,86.95
2018-02-05T23:24:20.369Z,86.23
2018-02-05T23:26:47.945Z,86.23
2018-02-05T23:29:15.536Z,86.66
2018-02-05T23:31:43.096Z,87.61
2018-02-05T23:34:11.876Z,87.17
2018-02-05T23:36:39.768Z,87.01
2018-02-05T23:39:07.334Z,87.48
2018-02-05T23:41:35.052Z,87.96
2018-02-05T23:44:02.636Z,88.23
2018-02-05T23:46:30.332Z,88.26
2018-02-05T23:48:57.884Z,88.50
2018-02-05T23:51:25.491Z,88.73
2018-02-05T23:53:53.050Z,88.94
2018-02-05T23:56:20.660Z,88.77
2018-02-05T23:58:48.412Z,88.51
